createdAt,value
2023-05-20T00:01:34.536Z,33.13
2023-05-20T00:04:04.356Z,32.20
2023-05-20T00:06:35.428Z,32.97
2023-05-20T00:09:06.715Z,32.30
2023-05-20T00:11:35.560Z,31.57
2023-05-20T00:14:07.547Z,33.80
2023-05-20T00:16:45.477Z,33.20
2023-05-20T00:19:14.524Z,32.30
2023-05-20T00:21:49.097Z,35.43
2023-05-20T00:24:20.912Z,33.80
2023-05-20T00:26:49.645Z,32.23
2023-05-20T00:29:22.073Z,34.17
2023-05-20T00:31:53.226Z,34.27
2023-05-20T00:34:22.329Z,32.50
2023-05-20T00:36:53.553Z,33.13
2023-05-20T00:39:23.930Z,32.90
2023-05-20T00:41:52.874Z,34.77
2023-05-20T00:44:27.725Z,30.50
2023-05-20T00:46:57.856Z,33.43
2023-05-20T00:49:27.047Z,33.17
2023-05-20T00:51:56.239Z,32.93
2023-05-20T00:54:26.808Z,34.13
2023-05-20T00:56:56.249Z,35.10
2023-05-20T00:59:28.300Z,27.83
2023-05-20T01:02:01.308Z,33.47
2023-05-20T01:04:33.023Z,32.17
2023-05-20T01:07:16.233Z,32.30
2023-05-20T01:09:48.365Z,33.80
2023-05-20T01:12:20.934Z,31.90
2023-05-20T01:14:54.527Z,33.50
2023-05-20T01:17:29.520Z,32.90
2023-05-20T01:20:00.107Z,34.20
2023-05-20T01:22:35.470Z,34.20
2023-05-20T01:25:05.914Z,33.30
2023-05-20T01:27:34.642Z,34.20
2023-05-20T01:30:03.158Z,34.13
2023-05-20T01:32:34.799Z,33.87
2023-05-20T01:35:04.240Z,33.50
2023-05-20T01:37:39.124Z,32.70
2023-05-20T01:40:14.117Z,34.17
2023-05-20T01:42:45.542Z,34.00
2023-05-20T01:45:14.220Z,34.63
2023-05-20T01:47:49.389Z,32.27
2023-05-20T01:50:22.869Z,33.00
2023-05-20T01:52:53.366Z,33.93
2023-05-20T01:55:29.958Z,33.50
2023-05-20T01:57:58.734Z,32.60
2023-05-20T02:00:36.885Z,32.70
2023-05-20T02:03:11.710Z,32.80
2023-05-20T02:05:41.868Z,32.60
2023-05-20T02:08:11.922Z,37.93
2023-05-20T02:10:40.669Z,33.60
2023-05-20T02:13:09.155Z,33.17
2023-05-20T02:15:39.874Z,32.63
2023-05-20T02:18:14.281Z,33.90
2023-05-20T02:20:48.666Z,35.03
2023-05-20T02:23:19.419Z,35.07
2023-05-20T02:25:53.695Z,34.00
2023-05-20T02:28:25.255Z,33.60
2023-05-20T02:30:53.969Z,34.23
2023-05-20T02:33:24.765Z,31.63
2023-05-20T02:35:56.535Z,32.07
2023-05-20T02:38:31.854Z,33.13
2023-05-20T02:41:09.505Z,33.30
2023-05-20T02:43:37.816Z,30.90
2023-05-20T02:46:06.346Z,31.93
2023-05-20T02:48:37.675Z,30.37
2023-05-20T02:51:08.521Z,31.60
2023-05-20T02:53:41.506Z,32.23
2023-05-20T02:56:11.195Z,33.97
2023-05-20T02:58:41.888Z,32.30
2023-05-20T03:01:14.298Z,32.17
2023-05-20T03:03:44.827Z,31.60
2023-05-20T03:06:23.346Z,33.00
2023-05-20T03:08:54.097Z,33.13
2023-05-20T03:11:25.986Z,32.10
2023-05-20T03:13:54.748Z,33.67
2023-05-20T03:16:28.619Z,32.77
2023-05-20T03:19:01.623Z,33.57
2023-05-20T03:21:37.564Z,34.03
2023-05-20T03:24:18.233Z,34.40
2023-05-20T03:26:49.626Z,31.73
2023-05-20T03:29:27.822Z,30.47
2023-05-20T03:31:58.977Z,34.70
2023-05-20T03:34:30.398Z,34.73
2023-05-20T03:37:00.498Z,33.53
2023-05-20T03:39:31.674Z,32.77
2023-05-20T03:42:02.430Z,33.33
2023-05-20T03:44:34.263Z,30.47
2023-05-20T03:47:11.718Z,33.07
2023-05-20T03:49:41.291Z,31.37
2023-05-20T03:52:12.843Z,32.77
2023-05-20T03:54:42.846Z,32.87
2023-05-20T03:57:11.569Z,31.70
2023-05-20T03:59:42.816Z,32.13
2023-05-20T04:02:13.700Z,31.90
2023-05-20T04:04:43.936Z,33.80
2023-05-20T04:07:13.020Z,33.27
2023-05-20T04:09:47.538Z,33.43
2023-05-20T04:12:21.127Z,31.47
2023-05-20T04:14:55.776Z,32.70
2023-05-20T04:17:31.058Z,34.07
2023-05-20T04:20:05.776Z,34.20
2023-05-20T04:22:34.815Z,32.50
2023-05-20T04:25:17.163Z,33.17
2023-05-20T04:27:46.076Z,32.47
2023-05-20T04:30:17.264Z,33.93
2023-05-20T04:32:46.280Z,32.67
2023-05-20T04:35:15.103Z,33.73
2023-05-20T04:37:48.724Z,33.70
2023-05-20T04:40:21.383Z,32.47
2023-05-20T04:42:50.262Z,34.10
2023-05-20T04:45:25.402Z,31.50
2023-05-20T04:47:54.534Z,33.17
2023-05-20T04:50:25.168Z,32.43
2023-05-20T04:52:54.033Z,33.03
2023-05-20T04:55:29.015Z,34.10
2023-05-20T04:57:59.966Z,33.07
2023-05-20T05:00:30.579Z,32.93
2023-05-20T05:03:04.256Z,34.03
2023-05-20T05:05:46.712Z,33.40
2023-05-20T05:08:17.492Z,34.00
2023-05-20T05:10:52.457Z,34.93
2023-05-20T05:13:22.348Z,34.30
2023-05-20T05:16:02.059Z,34.60
2023-05-20T05:18:36.974Z,37.00
2023-05-20T05:21:12.137Z,35.97
2023-05-20T05:23:47.748Z,36.13
2023-05-20T05:26:29.523Z,34.63
2023-05-20T05:29:00.657Z,38.00
2023-05-20T05:31:34.212Z,37.17
2023-05-20T05:34:04.085Z,37.10
2023-05-20T05:36:38.176Z,37.83
2023-05-20T05:39:09.284Z,38.27
2023-05-20T05:41:41.821Z,40.00
2023-05-20T05:44:17.806Z,36.43
2023-05-20T05:46:46.461Z,35.40
2023-05-20T05:49:17.353Z,39.27
2023-05-20T05:51:52.789Z,37.20
2023-05-20T05:54:21.880Z,37.93
2023-05-20T05:56:57.302Z,37.50
2023-05-20T05:59:38.010Z,36.90
2023-05-20T06:02:07.693Z,35.30
2023-05-20T06:04:40.436Z,36.80
2023-05-20T06:07:11.924Z,36.57
2023-05-20T06:09:42.240Z,37.63
2023-05-20T06:12:14.088Z,35.83
2023-05-20T06:14:43.306Z,37.20
2023-05-20T06:17:11.836Z,38.67
2023-05-20T06:19:43.124Z,38.03
2023-05-20T06:22:14.731Z,38.77
2023-05-20T06:24:43.584Z,38.00
2023-05-20T06:27:16.226Z,35.60
2023-05-20T06:29:47.589Z,38.80
2023-05-20T06:32:16.335Z,38.73
2023-05-20T06:34:47.872Z,38.53
2023-05-20T06:37:16.761Z,38.83
2023-05-20T06:39:47.819Z,37.13
2023-05-20T06:42:18.008Z,38.07
2023-05-20T06:44:53.187Z,38.30
2023-05-20T06:47:40.727Z,39.40
2023-05-20T06:50:11.468Z,37.57
2023-05-20T06:52:54.376Z,38.73
2023-05-20T06:55:26.717Z,36.60
2023-05-20T06:57:57.760Z,37.70
2023-05-20T07:00:30.432Z,37.70
2023-05-20T07:03:01.715Z,36.87
2023-05-20T07:05:40.642Z,39.00
2023-05-20T07:08:12.341Z,39.27
2023-05-20T07:10:47.257Z,38.23
2023-05-20T07:13:26.563Z,37.83
2023-05-20T07:16:01.600Z,33.33
2023-05-20T07:18:33.070Z,37.50
2023-05-20T07:21:09.739Z,37.57
2023-05-20T07:24:01.847Z,38.20
2023-05-20T07:26:33.834Z,38.50
2023-05-20T07:29:04.413Z,39.10
2023-05-20T07:31:33.151Z,35.53
2023-05-20T07:34:01.654Z,39.33
2023-05-20T07:36:30.438Z,36.93
2023-05-20T07:39:05.718Z,39.30
2023-05-20T07:41:37.984Z,39.00
2023-05-20T07:44:11.378Z,38.70
2023-05-20T07:46:42.131Z,37.83
2023-05-20T07:49:12.100Z,38.20
2023-05-20T07:51:41.614Z,37.53
2023-05-20T07:54:10.054Z,38.27
2023-05-20T07:56:38.735Z,36.97
2023-05-20T07:59:10.542Z,36.33
2023-05-20T08:01:44.110Z,35.27
2023-05-20T08:04:14.336Z,36.23
2023-05-20T08:06:44.519Z,36.80
2023-05-20T08:09:18.125Z,36.20
2023-05-20T08:11:51.062Z,36.10
2023-05-20T08:14:21.895Z,37.20
2023-05-20T08:16:54.872Z,35.87
2023-05-20T08:19:23.802Z,36.07
2023-05-20T08:21:54.937Z,39.13
2023-05-20T08:24:23.594Z,36.90
2023-05-20T08:26:52.111Z,38.67
2023-05-20T08:29:24.644Z,38.23
2023-05-20T08:31:54.767Z,37.33
2023-05-20T08:34:23.105Z,35.77
2023-05-20T08:37:00.140Z,35.30
2023-05-20T08:39:32.045Z,35.20
2023-05-20T08:42:07.518Z,38.83
2023-05-20T08:44:38.033Z,35.80
2023-05-20T08:47:09.966Z,34.53
2023-05-20T08:49:38.609Z,36.97
2023-05-20T08:52:14.949Z,36.30
2023-05-20T08:54:47.035Z,35.40
2023-05-20T08:57:16.594Z,35.47
2023-05-20T08:59:48.372Z,35.93
2023-05-20T09:02:17.626Z,34.93
2023-05-20T09:04:46.345Z,36.63
2023-05-20T09:07:15.294Z,36.90
2023-05-20T09:09:46.975Z,35.70
2023-05-20T09:12:24.932Z,34.90
2023-05-20T09:14:55.249Z,35.40
2023-05-20T09:17:24.901Z,35.63
2023-05-20T09:19:54.641Z,33.43
2023-05-20T09:22:26.350Z,34.70
2023-05-20T09:24:55.413Z,32.70
2023-05-20T09:27:27.425Z,31.40
2023-05-20T09:29:57.917Z,34.77
2023-05-20T09:32:31.512Z,35.80
2023-05-20T09:35:12.806Z,35.63
2023-05-20T09:37:44.238Z,34.87
2023-05-20T09:40:15.376Z,35.10
2023-05-20T09:42:49.514Z,34.37
2023-05-20T09:45:19.403Z,36.60
2023-05-20T09:47:48.264Z,33.57
2023-05-20T09:50:22.007Z,33.73
2023-05-20T09:52:51.101Z,35.87
2023-05-20T09:55:21.073Z,33.93
2023-05-20T09:57:50.097Z,33.87
2023-05-20T10:00:20.546Z,36.13
2023-05-20T10:02:51.309Z,36.17
2023-05-20T10:05:24.266Z,31.73
2023-05-20T10:08:23.404Z,32.77
2023-05-20T10:10:58.406Z,32.53
2023-05-20T10:13:49.496Z,32.87
2023-05-20T10:16:35.174Z,31.50
2023-05-20T10:19:14.641Z,32.20
2023-05-20T10:21:43.229Z,31.70
2023-05-20T10:24:15.540Z,31.70
2023-05-20T10:26:44.357Z,31.00
2023-05-20T10:29:28.146Z,32.40
2023-05-20T10:32:04.071Z,32.37
2023-05-20T10:34:50.357Z,32.10
2023-05-20T10:37:27.113Z,32.03
2023-05-20T10:40:07.330Z,33.33
2023-05-20T10:43:11.836Z,30.97
2023-05-20T10:46:30.184Z,31.33
2023-05-20T10:49:24.073Z,32.07
2023-05-20T10:54:50.866Z,31.50
2023-05-20T11:05:51.517Z,31.03
2023-05-20T12:04:55.387Z,32.20
2023-05-20T12:11:58.446Z,29.33
2023-05-20T12:17:34.868Z,29.93
2023-05-20T12:20:22.689Z,27.97
2023-05-20T12:26:48.774Z,28.10
2023-05-20T12:29:18.136Z,30.70
2023-05-20T12:31:49.959Z,29.97
2023-05-20T12:34:20.749Z,28.07
2023-05-20T12:36:52.690Z,28.70
2023-05-20T12:39:21.603Z,28.53
2023-05-20T12:41:53.501Z,26.70
2023-05-20T12:44:22.533Z,30.43
2023-05-20T12:46:54.662Z,28.83
2023-05-20T12:49:29.891Z,28.43
2023-05-20T12:51:59.929Z,28.93
2023-05-20T12:54:30.506Z,28.50
2023-05-20T12:56:59.731Z,28.67
2023-05-20T12:59:28.104Z,30.43
2023-05-20T13:01:56.761Z,30.40
2023-05-20T13:04:27.145Z,27.83
2023-05-20T13:07:01.609Z,27.93
2023-05-20T13:09:39.016Z,31.00
2023-05-20T13:12:08.485Z,30.67
2023-05-20T13:14:37.801Z,30.23
2023-05-20T13:17:07.201Z,30.40
2023-05-20T13:19:38.351Z,30.73
2023-05-20T13:22:10.418Z,30.67
2023-05-20T13:24:39.702Z,29.53
2023-05-20T13:27:19.381Z,28.40
2023-05-20T13:29:51.040Z,28.47
2023-05-20T13:32:22.620Z,29.63
2023-05-20T13:34:57.363Z,29.93
2023-05-20T13:37:27.232Z,28.30
2023-05-20T13:39:59.666Z,30.07
2023-05-20T13:42:28.922Z,32.20
2023-05-20T13:45:00.260Z,28.40
2023-05-20T13:47:39.514Z,29.67
2023-05-20T13:50:29.556Z,29.33
2023-05-20T13:53:05.373Z,31.30
2023-05-20T13:55:43.885Z,29.33
2023-05-20T13:58:20.087Z,28.10
2023-05-20T14:01:16.016Z,29.63
2023-05-20T14:04:16.208Z,30.23
2023-05-20T14:06:49.122Z,28.20
2023-05-20T14:09:17.929Z,29.17
2023-05-20T14:11:46.503Z,28.90
2023-05-20T14:14:15.116Z,29.73
2023-05-20T14:16:45.812Z,31.23
2023-05-20T14:19:14.137Z,31.00
2023-05-20T14:21:45.925Z,30.10
2023-05-20T14:24:15.642Z,30.27
2023-05-20T14:26:44.071Z,31.30
2023-05-20T14:29:15.826Z,30.67
2023-05-20T14:31:44.529Z,29.53
2023-05-20T14:34:14.104Z,30.07
2023-05-20T14:36:43.350Z,31.20
2023-05-20T14:39:11.707Z,31.53
2023-05-20T14:41:42.275Z,31.27
2023-05-20T14:44:23.907Z,31.33
2023-05-20T14:46:53.248Z,33.60
2023-05-20T14:49:21.970Z,32.63
2023-05-20T14:51:50.810Z,31.70
2023-05-20T14:57:48.500Z,31.07
2023-05-20T15:00:48.047Z,32.60
2023-05-20T15:03:40.274Z,31.57
2023-05-20T15:06:49.834Z,31.00
2023-05-20T15:09:45.978Z,32.07
2023-05-20T15:12:36.241Z,31.37
2023-05-20T15:15:46.520Z,32.20
2023-05-20T15:18:29.962Z,32.37
2023-05-20T15:21:41.417Z,31.90
2023-05-20T15:24:23.760Z,31.80
2023-05-20T15:26:54.534Z,30.40
2023-05-20T15:32:33.074Z,30.63
2023-05-20T15:35:09.744Z,31.60
2023-05-20T15:37:41.401Z,32.30
2023-05-20T15:40:16.879Z,30.70
2023-05-20T15:43:03.856Z,31.43
2023-05-20T15:45:55.603Z,30.80
2023-05-20T15:51:52.243Z,31.10
2023-05-20T15:55:00.235Z,31.93
2023-05-20T15:57:57.184Z,33.87
2023-05-20T16:00:46.980Z,30.60
2023-05-20T16:03:44.124Z,32.03
2023-05-20T16:06:32.113Z,31.23
2023-05-20T16:09:12.264Z,31.23
2023-05-20T16:11:52.604Z,32.07
2023-05-20T16:15:26.476Z,31.87
2023-05-20T16:18:26.811Z,32.73
2023-05-20T16:21:22.165Z,32.50
2023-05-20T16:24:14.337Z,32.40
2023-05-20T16:26:57.992Z,32.70
2023-05-20T16:29:53.936Z,31.10
2023-05-20T16:32:36.821Z,31.27
2023-05-20T16:38:28.813Z,33.17
2023-05-20T16:41:27.896Z,31.07
2023-05-20T16:44:13.513Z,32.70
2023-05-20T16:47:19.829Z,32.67
2023-05-20T16:50:18.895Z,33.80
2023-05-20T16:53:07.516Z,31.57
2023-05-20T16:59:04.788Z,32.37
2023-05-20T17:01:52.115Z,31.37
2023-05-20T17:04:34.894Z,30.60
2023-05-20T17:10:18.910Z,29.50
2023-05-20T17:13:08.132Z,28.37
2023-05-20T17:16:09.733Z,28.93
2023-05-20T17:18:41.418Z,27.67
2023-05-20T17:21:18.174Z,28.63
2023-05-20T17:24:03.369Z,27.90
2023-05-20T17:26:59.585Z,27.83
2023-05-20T17:29:45.249Z,28.77
2023-05-20T17:32:44.663Z,29.10
2023-05-20T17:35:36.488Z,29.27
2023-05-20T17:38:38.895Z,28.73
2023-05-20T17:41:26.232Z,30.17
2023-05-20T17:44:15.165Z,29.60
2023-05-20T17:47:22.941Z,29.17
2023-05-20T17:49:53.747Z,27.70
2023-05-20T17:52:23.609Z,28.03
2023-05-20T17:54:52.648Z,28.63
2023-05-20T17:57:21.387Z,29.47
2023-05-20T17:59:50.957Z,29.67
2023-05-20T18:02:21.126Z,29.30
2023-05-20T18:04:49.942Z,30.00
2023-05-20T18:07:33.345Z,29.40
2023-05-20T18:10:02.870Z,29.97
2023-05-20T18:12:39.157Z,29.80
2023-05-20T18:15:17.211Z,31.40
2023-05-20T18:18:26.578Z,30.73
2023-05-20T18:21:51.229Z,30.83
2023-05-20T18:36:13.216Z,28.00
2023-05-20T18:39:35.254Z,30.97
2023-05-20T18:46:44.742Z,29.67
2023-05-20T19:00:00.024Z,26.77
2023-05-20T19:03:02.175Z,29.20
2023-05-20T19:06:10.585Z,29.20
2023-05-20T19:09:05.473Z,30.10
2023-05-20T19:11:41.327Z,29.30
2023-05-20T19:14:33.825Z,29.47
2023-05-20T19:17:24.588Z,29.57
2023-05-20T19:20:08.707Z,29.57
2023-05-20T19:23:12.913Z,30.73
2023-05-20T19:25:55.241Z,29.10
2023-05-20T19:28:30.060Z,29.77
2023-05-20T19:31:15.793Z,30.20
2023-05-20T19:33:56.431Z,28.37
2023-05-20T19:36:45.701Z,29.90
2023-05-20T19:42:49.574Z,31.23
2023-05-20T19:45:29.036Z,28.87
2023-05-20T19:48:14.703Z,30.50
2023-05-20T19:51:00.191Z,32.57
2023-05-20T20:41:50.310Z,33.37
2023-05-20T20:44:27.520Z,33.87
2023-05-20T20:47:18.315Z,35.50
2023-05-20T20:49:59.555Z,34.50
2023-05-20T20:52:36.431Z,35.43
2023-05-20T20:55:20.445Z,34.30
2023-05-20T20:58:12.680Z,33.97
2023-05-20T21:01:08.725Z,35.00
2023-05-20T21:04:01.573Z,34.00
2023-05-20T21:06:53.478Z,34.10
2023-05-20T21:09:45.987Z,33.13
2023-05-20T21:12:25.862Z,33.97
2023-05-20T21:15:13.600Z,35.13
2023-05-20T21:18:07.060Z,33.70
2023-05-20T21:20:58.043Z,35.70
2023-05-20T21:23:46.013Z,34.87
2023-05-20T21:26:33.826Z,35.47
2023-05-20T21:29:12.430Z,35.50
2023-05-20T21:31:59.434Z,37.60
2023-05-20T21:34:45.527Z,36.03
2023-05-20T21:37:36.026Z,38.00
2023-05-20T21:43:11.250Z,37.27
2023-05-20T21:45:48.966Z,36.50
2023-05-20T21:48:26.228Z,37.77
2023-05-20T21:51:10.160Z,36.63
2023-05-20T21:53:51.669Z,39.60
2023-05-20T21:56:30.020Z,37.10
2023-05-20T21:59:18.411Z,36.97
2023-05-20T22:02:06.518Z,35.17
2023-05-20T22:04:35.212Z,36.27
2023-05-20T22:07:13.740Z,38.77
2023-05-20T22:09:59.412Z,38.47
2023-05-20T22:12:40.542Z,36.83
2023-05-20T22:15:20.265Z,38.67
2023-05-20T22:18:08.620Z,40.63
2023-05-20T22:20:50.884Z,40.40
2023-05-20T22:23:42.613Z,41.30
2023-05-20T22:26:24.891Z,38.90
2023-05-20T22:29:13.882Z,37.93
2023-05-20T22:32:02.650Z,37.77
2023-05-20T22:34:52.544Z,36.07
2023-05-20T22:37:42.749Z,37.77
2023-05-20T22:40:20.246Z,38.93
2023-05-20T22:43:03.369Z,38.33
2023-05-20T22:48:43.254Z,39.17
2023-05-20T22:51:23.388Z,36.80
2023-05-20T22:54:16.315Z,38.40
2023-05-20T22:57:01.141Z,38.53
2023-05-20T22:59:46.071Z,37.37
2023-05-20T23:02:35.822Z,36.87
2023-05-20T23:05:18.465Z,36.97
2023-05-20T23:08:05.982Z,39.13
2023-05-20T23:10:45.374Z,38.10
2023-05-20T23:13:32.004Z,39.53
2023-05-20T23:16:14.714Z,37.77
2023-05-20T23:19:07.206Z,38.87
2023-05-20T23:21:49.372Z,37.33
2023-05-20T23:24:27.146Z,38.50
2023-05-20T23:27:26.083Z,38.07
2023-05-20T23:29:54.485Z,40.43
2023-05-20T23:32:35.446Z,36.70
2023-05-20T23:38:37.048Z,38.07
2023-05-20T23:41:17.892Z,37.47
2023-05-20T23:44:31.981Z,38.10
2023-05-20T23:50:14.294Z,38.57
2023-05-20T23:53:00.295Z,38.53
2023-05-20T23:55:30.132Z,36.03
2023-05-20T23:57:58.504Z,38.70
